Time,TemperatureF,DewpointF,PressureIn,WindDirection,WindDirectionDegrees,WindSpeedMPH,WindSpeedGustMPH,Humidity,HourlyPrecipIn,Conditions,Clouds,dailyrainin,SoftwareType,DateUTC
2013-09-03 00:00:00,63.8,63.2,29.85,ENE,68,0.0,1.0,98,0.00,,,0.00,WeatherCatV1.21B27,2013-09-03 07:00:00,
2013-09-03 00:05:00,63.8,63.2,29.85,ENE,68,0.0,1.0,98,0.00,,,0.00,WeatherCatV1.21B27,2013-09-03 07:05:00,
2013-09-03 00:10:00,63.8,63.2,29.85,ENE,68,0.0,1.0,98,0.00,,,0.00,WeatherCatV1.21B27,2013-09-03 07:10:00,
2013-09-03 00:15:00,63.8,63.2,29.85,ENE,68,0.0,1.0,98,0.00,,,0.00,WeatherCatV1.21B27,2013-09-03 07:15:00,
2013-09-03 00:20:00,63.8,63.2,29.85,ENE,68,0.0,1.0,98,0.00,,,0.00,WeatherCatV1.21B27,2013-09-03 07:20:00,
2013-09-03 00:25:00,64.1,63.5,29.85,ENE,68,0.0,1.0,98,0.00,,,0.00,WeatherCatV1.21B27,2013-09-03 07:25:00,
2013-09-03 00:30:00,64.1,63.5,29.85,ENE,68,0.0,1.0,98,0.00,,,0.00,WeatherCatV1.21B27,2013-09-03 07:30:00,
2013-09-03 00:35:00,64.1,63.5,29.85,ENE,68,0.0,1.0,98,0.00,,,0.00,WeatherCatV1.21B27,2013-09-03 07:35:00,
2013-09-03 00:40:00,64.1,63.5,29.85,ENE,68,0.0,1.0,98,0.00,,,0.00,WeatherCatV1.21B27,2013-09-03 07:40:00,
2013-09-03 00:45:00,64.1,63.5,29.85,ENE,68,0.0,1.0,98,0.00,,,0.00,WeatherCatV1.21B27,2013-09-03 07:45:00,
2013-09-03 00:50:00,64.1,63.5,29.85,ENE,68,0.0,1.0,98,0.00,,,0.00,WeatherCatV1.21B27,2013-09-03 07:50:00,
2013-09-03 00:55:00,64.1,63.5,29.85,ENE,68,0.0,1.0,98,0.00,,,0.00,WeatherCatV1.21B27,2013-09-03 07:55:00,
2013-09-03 01:00:00,64.1,63.5,29.85,ENE,68,0.0,1.0,98,0.00,,,0.00,WeatherCatV1.21B27,2013-09-03 08:00:00,
2013-09-03 01:05:00,64.1,63.5,29.85,ENE,68,0.0,1.0,98,0.00,,,0.00,WeatherCatV1.21B27,2013-09-03 08:05:00,
2013-09-03 01:10:00,64.1,63.5,29.85,ENE,68,0.0,1.0,98,0.00,,,0.00,WeatherCatV1.21B27,2013-09-03 08:10:00,
2013-09-03 01:15:00,64.1,63.5,29.85,ENE,68,0.0,1.0,98,0.00,,,0.00,WeatherCatV1.21B27,2013-09-03 08:15:00,
2013-09-03 01:20:00,64.1,63.5,29.85,ENE,68,0.0,1.0,98,0.00,,,0.00,WeatherCatV1.21B27,2013-09-03 08:20:00,
2013-09-03 01:25:00,63.3,62.7,29.86,ENE,68,0.0,1.0,98,0.00,,,0.00,WeatherCatV1.21B27,2013-09-03 08:25:00,
2013-09-03 01:30:00,63.3,62.7,29.86,ENE,68,0.0,1.0,98,0.00,,,0.00,WeatherCatV1.21B27,2013-09-03 08:30:00,
2013-09-03 01:35:00,63.3,62.7,29.86,ENE,68,0.0,1.0,98,0.00,,,0.00,WeatherCatV1.21B27,2013-09-03 08:35:00,
2013-09-03 01:40:00,63.3,62.7,29.86,ENE,68,0.0,1.0,98,0.00,,,0.00,WeatherCatV1.21B27,2013-09-03 08:40:00,
2013-09-03 01:45:00,63.3,62.7,29.86,ENE,68,0.0,1.0,98,0.00,,,0.00,WeatherCatV1.21B27,2013-09-03 08:45:00,
2013-09-03 01:50:00,63.3,62.7,29.86,ENE,68,0.0,1.0,98,0.00,,,0.00,WeatherCatV1.21B27,2013-09-03 08:50:00,
2013-09-03 01:55:00,63.3,62.7,29.86,ENE,68,0.0,1.0,98,0.00,,,0.00,WeatherCatV1.21B27,2013-09-03 08:55:00,
2013-09-03 02:00:00,63.3,62.7,29.86,ENE,68,0.0,1.0,98,0.00,,,0.00,WeatherCatV1.21B27,2013-09-03 09:00:00,
2013-09-03 02:05:00,63.3,62.7,29.86,ENE,68,0.0,1.0,98,0.00,,,0.00,WeatherCatV1.21B27,2013-09-03 09:05:00,
2013-09-03 02:10:00,63.3,62.7,29.86,ENE,68,0.0,1.0,98,0.00,,,0.00,WeatherCatV1.21B27,2013-09-03 09:10:00,
2013-09-03 02:15:00,63.3,62.7,29.86,ENE,68,0.0,1.0,98,0.00,,,0.00,WeatherCatV1.21B27,2013-09-03 09:15:00,
2013-09-03 02:20:00,63.3,62.7,29.86,ENE,68,0.0,1.0,98,0.00,,,0.00,WeatherCatV1.21B27,2013-09-03 09:20:00,
2013-09-03 02:25:00,63.0,62.4,29.86,ENE,68,0.0,0.0,98,0.00,,,0.00,WeatherCatV1.21B27,2013-09-03 09:25:00,
2013-09-03 02:30:00,63.0,62.4,29.86,ENE,68,0.0,0.0,98,0.00,,,0.00,WeatherCatV1.21B27,2013-09-03 09:30:00,
2013-09-03 02:35:00,63.0,62.4,29.86,ENE,68,0.0,0.0,98,0.00,,,0.00,WeatherCatV1.21B27,2013-09-03 09:35:00,
2013-09-03 02:40:00,63.0,62.4,29.86,ENE,68,0.0,0.0,98,0.00,,,0.00,WeatherCatV1.21B27,2013-09-03 09:40:00,
2013-09-03 02:45:00,63.0,62.4,29.86,ENE,68,0.0,0.0,98,0.00,,,0.00,WeatherCatV1.21B27,2013-09-03 09:45:00,
2013-09-03 02:50:00,63.0,62.4,29.86,ENE,68,0.0,0.0,98,0.00,,,0.00,WeatherCatV1.21B27,2013-09-03 09:50:00,
2013-09-03 02:55:00,63.0,62.4,29.86,ENE,68,0.0,0.0,98,0.00,,,0.00,WeatherCatV1.21B27,2013-09-03 09:55:00,
2013-09-03 03:00:00,63.0,62.4,29.86,ENE,68,0.0,0.0,98,0.00,,,0.00,WeatherCatV1.21B27,2013-09-03 10:00:00,
2013-09-03 03:05:00,63.0,62.4,29.86,ENE,68,0.0,0.0,98,0.00,,,0.00,WeatherCatV1.21B27,2013-09-03 10:05:00,
2013-09-03 03:10:00,63.0,62.4,29.86,ENE,68,0.0,0.0,98,0.00,,,0.00,WeatherCatV1.21B27,2013-09-03 10:10:00,
2013-09-03 03:15:00,63.0,62.4,29.86,ENE,68,0.0,0.0,98,0.00,,,0.00,WeatherCatV1.21B27,2013-09-03 10:15:00,
2013-09-03 03:20:00,63.0,62.4,29.86,ENE,68,0.0,0.0,98,0.00,,,0.00,WeatherCatV1.21B27,2013-09-03 10:20:00,
2013-09-03 03:25:00,62.8,62.2,29.86,ENE,68,0.0,0.0,98,0.00,,,0.00,WeatherCatV1.21B27,2013-09-03 10:25:00,
2013-09-03 03:30:00,62.8,62.2,29.86,ENE,68,0.0,0.0,98,0.00,,,0.00,WeatherCatV1.21B27,2013-09-03 10:30:00,
2013-09-03 03:35:00,62.8,62.2,29.86,ENE,68,0.0,0.0,98,0.00,,,0.00,WeatherCatV1.21B27,2013-09-03 10:35:00,
2013-09-03 03:40:00,62.8,62.2,29.86,ENE,68,0.0,0.0,98,0.00,,,0.00,WeatherCatV1.21B27,2013-09-03 10:40:00,
2013-09-03 03:45:00,62.8,62.2,29.86,ENE,68,0.0,0.0,98,0.00,,,0.00,WeatherCatV1.21B27,2013-09-03 10:45:00,
2013-09-03 03:50:00,62.8,62.2,29.86,ENE,68,0.0,0.0,98,0.00,,,0.00,WeatherCatV1.21B27,2013-09-03 10:50:00,
2013-09-03 03:55:00,62.8,62.2,29.86,ENE,68,0.0,0.0,98,0.00,,,0.00,WeatherCatV1.21B27,2013-09-03 10:55:00,
2013-09-03 04:00:00,62.8,62.2,29.86,ENE,68,0.0,0.0,98,0.00,,,0.00,WeatherCatV1.21B27,2013-09-03 11:00:00,
2013-09-03 04:05:00,62.8,62.2,29.86,ENE,68,0.0,0.0,98,0.00,,,0.00,WeatherCatV1.21B27,2013-09-03 11:05:00,
2013-09-03 04:10:00,62.8,62.2,29.86,ENE,68,0.0,0.0,98,0.00,,,0.00,WeatherCatV1.21B27,2013-09-03 11:10:00,
2013-09-03 04:15:00,62.8,62.2,29.86,ENE,68,0.0,0.0,98,0.00,,,0.00,WeatherCatV1.21B27,2013-09-03 11:15:00,
2013-09-03 04:20:00,62.8,62.2,29.86,ENE,68,0.0,0.0,98,0.00,,,0.00,WeatherCatV1.21B27,2013-09-03 11:20:00,
2013-09-03 04:25:00,62.8,62.2,29.85,ENE,68,0.0,0.0,98,0.00,,,0.00,WeatherCatV1.21B27,2013-09-03 11:25:00,
2013-09-03 04:30:00,62.8,62.2,29.85,ENE,68,0.0,0.0,98,0.00,,,0.00,WeatherCatV1.21B27,2013-09-03 11:30:00,
2013-09-03 04:35:00,62.8,62.2,29.85,ENE,68,0.0,0.0,98,0.00,,,0.00,WeatherCatV1.21B27,2013-09-03 11:35:00,
2013-09-03 04:40:00,62.8,62.2,29.85,ENE,68,0.0,0.0,98,0.00,,,0.00,WeatherCatV1.21B27,2013-09-03 11:40:00,
2013-09-03 04:45:00,62.8,62.2,29.85,ENE,68,0.0,0.0,98,0.00,,,0.00,WeatherCatV1.21B27,2013-09-03 11:45:00,
2013-09-03 04:50:00,62.8,62.2,29.85,ENE,68,0.0,0.0,98,0.00,,,0.00,WeatherCatV1.21B27,2013-09-03 11:50:00,
2013-09-03 04:55:00,62.8,62.2,29.85,ENE,68,0.0,0.0,98,0.00,,,0.00,WeatherCatV1.21B27,2013-09-03 11:55:00,
2013-09-03 05:00:00,62.8,62.2,29.85,ENE,68,0.0,0.0,98,0.00,,,0.00,WeatherCatV1.21B27,2013-09-03 12:00:00,
2013-09-03 05:05:00,62.8,62.2,29.85,ENE,68,0.0,0.0,98,0.00,,,0.00,WeatherCatV1.21B27,2013-09-03 12:05:00,
2013-09-03 05:10:00,62.8,62.2,29.85,ENE,68,0.0,0.0,98,0.00,,,0.00,WeatherCatV1.21B27,2013-09-03 12:10:00,
2013-09-03 05:15:00,62.8,62.2,29.85,ENE,68,0.0,0.0,98,0.00,,,0.00,WeatherCatV1.21B27,2013-09-03 12:15:00,
2013-09-03 05:20:00,62.8,62.2,29.85,ENE,68,0.0,0.0,98,0.00,,,0.00,WeatherCatV1.21B27,2013-09-03 12:20:00,
2013-09-03 05:25:00,62.1,61.5,29.85,ENE,68,0.0,1.0,98,0.00,,,0.00,WeatherCatV1.21B27,2013-09-03 12:25:00,
2013-09-03 05:30:00,62.1,61.5,29.85,ENE,68,0.0,1.0,98,0.00,,,0.00,WeatherCatV1.21B27,2013-09-03 12:30:00,
2013-09-03 05:35:00,62.1,61.5,29.85,ENE,68,0.0,1.0,98,0.00,,,0.00,WeatherCatV1.21B27,2013-09-03 12:35:00,
2013-09-03 05:40:00,62.1,61.5,29.85,ENE,68,0.0,1.0,98,0.00,,,0.00,WeatherCatV1.21B27,2013-09-03 12:40:00,
2013-09-03 05:45:00,62.1,61.5,29.85,ENE,68,0.0,1.0,98,0.00,,,0.00,WeatherCatV1.21B27,2013-09-03 12:45:00,
2013-09-03 05:50:00,62.1,61.5,29.85,ENE,68,0.0,1.0,98,0.00,,,0.00,WeatherCatV1.21B27,2013-09-03 12:50:00,
2013-09-03 05:55:00,62.1,61.5,29.85,ENE,68,0.0,1.0,98,0.00,,,0.00,WeatherCatV1.21B27,2013-09-03 12:55:00,
2013-09-03 06:00:00,62.1,61.5,29.85,ENE,68,0.0,1.0,98,0.00,,,0.00,WeatherCatV1.21B27,2013-09-03 13:00:00,
2013-09-03 06:05:00,62.1,61.5,29.85,ENE,68,0.0,1.0,98,0.00,,,0.00,WeatherCatV1.21B27,2013-09-03 13:05:00,
2013-09-03 06:10:00,62.1,61.5,29.85,ENE,68,0.0,1.0,98,0.00,,,0.00,WeatherCatV1.21B27,2013-09-03 13:10:00,
2013-09-03 06:15:00,62.1,61.5,29.85,ENE,68,0.0,1.0,98,0.00,,,0.00,WeatherCatV1.21B27,2013-09-03 13:15:00,
2013-09-03 06:20:00,62.1,61.5,29.85,ENE,68,0.0,1.0,98,0.00,,,0.00,WeatherCatV1.21B27,2013-09-03 13:20:00,
2013-09-03 06:25:00,62.0,61.4,29.86,ENE,68,0.0,0.0,98,0.00,,,0.00,WeatherCatV1.21B27,2013-09-03 13:25:00,
2013-09-03 06:30:00,62.0,61.4,29.86,ENE,68,0.0,0.0,98,0.00,,,0.00,WeatherCatV1.21B27,2013-09-03 13:30:00,
2013-09-03 06:35:00,62.0,61.4,29.86,ENE,68,0.0,0.0,98,0.00,,,0.00,WeatherCatV1.21B27,2013-09-03 13:35:00,
2013-09-03 06:40:00,62.0,61.4,29.86,ENE,68,0.0,0.0,98,0.00,,,0.00,WeatherCatV1.21B27,2013-09-03 13:40:00,
2013-09-03 06:45:00,62.0,61.4,29.86,ENE,68,0.0,0.0,98,0.00,,,0.00,WeatherCatV1.21B27,2013-09-03 13:45:00,
2013-09-03 06:50:00,62.0,61.4,29.86,ENE,68,0.0,0.0,98,0.00,,,0.00,WeatherCatV1.21B27,2013-09-03 13:50:00,
2013-09-03 06:55:00,62.0,61.4,29.86,ENE,68,0.0,0.0,98,0.00,,,0.00,WeatherCatV1.21B27,2013-09-03 13:55:00,
2013-09-03 07:00:00,62.0,61.4,29.86,ENE,68,0.0,0.0,98,0.00,,,0.00,WeatherCatV1.21B27,2013-09-03 14:00:00,
2013-09-03 07:05:00,62.0,61.4,29.86,ENE,68,0.0,0.0,98,0.00,,,0.00,WeatherCatV1.21B27,2013-09-03 14:05:00,
2013-09-03 07:10:00,62.0,61.4,29.86,ENE,68,0.0,0.0,98,0.00,,,0.00,WeatherCatV1.21B27,2013-09-03 14:10:00,
2013-09-03 07:15:00,62.0,61.4,29.86,ENE,68,0.0,0.0,98,0.00,,,0.00,WeatherCatV1.21B27,2013-09-03 14:15:00,
2013-09-03 07:20:00,62.0,61.4,29.86,ENE,68,0.0,0.0,98,0.00,,,0.00,WeatherCatV1.21B27,2013-09-03 14:20:00,
2013-09-03 07:25:00,62.1,61.5,29.88,ENE,68,0.0,1.0,98,0.00,,,0.00,WeatherCatV1.21B27,2013-09-03 14:25:00,
2013-09-03 07:30:00,62.1,61.5,29.88,ENE,68,0.0,1.0,98,0.00,,,0.00,WeatherCatV1.21B27,2013-09-03 14:30:00,
2013-09-03 07:35:00,62.1,61.5,29.88,ENE,68,0.0,1.0,98,0.00,,,0.00,WeatherCatV1.21B27,2013-09-03 14:35:00,
2013-09-03 07:40:00,62.1,61.5,29.88,ENE,68,0.0,1.0,98,0.00,,,0.00,WeatherCatV1.21B27,2013-09-03 14:40:00,
2013-09-03 07:45:00,62.1,61.5,29.88,ENE,68,0.0,1.0,98,0.00,,,0.00,WeatherCatV1.21B27,2013-09-03 14:45:00,
2013-09-03 07:50:00,62.1,61.5,29.88,ENE,68,0.0,1.0,98,0.00,,,0.00,WeatherCatV1.21B27,2013-09-03 14:50:00,
2013-09-03 07:55:00,62.1,61.5,29.88,ENE,68,0.0,1.0,98,0.00,,,0.00,WeatherCatV1.21B27,2013-09-03 14:55:00,
2013-09-03 08:00:00,62.1,61.5,29.88,ENE,68,0.0,1.0,98,0.00,,,0.00,WeatherCatV1.21B27,2013-09-03 15:00:00,
2013-09-03 08:05:00,62.1,61.5,29.88,ENE,68,0.0,1.0,98,0.00,,,0.00,WeatherCatV1.21B27,2013-09-03 15:05:00,
2013-09-03 08:10:00,62.1,61.5,29.88,ENE,68,0.0,1.0,98,0.00,,,0.00,WeatherCatV1.21B27,2013-09-03 15:10:00,
2013-09-03 08:15:00,62.1,61.5,29.88,ENE,68,0.0,1.0,98,0.00,,,0.00,WeatherCatV1.21B27,2013-09-03 15:15:00,
2013-09-03 08:20:00,62.1,61.5,29.88,ENE,68,0.0,1.0,98,0.00,,,0.00,WeatherCatV1.21B27,2013-09-03 15:20:00,
2013-09-03 08:25:00,62.0,61.7,29.90,ENE,68,0.0,0.0,99,0.00,,,0.00,WeatherCatV1.21B27,2013-09-03 15:25:00,
2013-09-03 08:30:00,62.0,61.7,29.90,ENE,68,0.0,0.0,99,0.00,,,0.00,WeatherCatV1.21B27,2013-09-03 15:30:00,
2013-09-03 08:35:00,62.0,61.7,29.90,ENE,68,0.0,0.0,99,0.00,,,0.00,WeatherCatV1.21B27,2013-09-03 15:35:00,
2013-09-03 08:40:00,62.0,61.7,29.90,ENE,68,0.0,0.0,99,0.00,,,0.00,WeatherCatV1.21B27,2013-09-03 15:40:00,
2013-09-03 08:45:00,62.0,61.7,29.90,ENE,68,0.0,0.0,99,0.00,,,0.00,WeatherCatV1.21B27,2013-09-03 15:45:00,
2013-09-03 08:50:00,62.0,61.7,29.90,ENE,68,0.0,0.0,99,0.00,,,0.00,WeatherCatV1.21B27,2013-09-03 15:50:00,
2013-09-03 08:55:00,62.0,61.7,29.90,ENE,68,0.0,0.0,99,0.00,,,0.00,WeatherCatV1.21B27,2013-09-03 15:55:00,
2013-09-03 09:00:00,62.0,61.7,29.90,ENE,68,0.0,0.0,99,0.00,,,0.00,WeatherCatV1.21B27,2013-09-03 16:00:00,
2013-09-03 09:05:00,62.0,61.7,29.90,ENE,68,0.0,0.0,99,0.00,,,0.00,WeatherCatV1.21B27,2013-09-03 16:05:00,
2013-09-03 09:10:00,62.0,61.7,29.90,ENE,68,0.0,0.0,99,0.00,,,0.00,WeatherCatV1.21B27,2013-09-03 16:10:00,
2013-09-03 09:15:00,62.0,61.7,29.90,ENE,68,0.0,0.0,99,0.00,,,0.00,WeatherCatV1.21B27,2013-09-03 16:15:00,
2013-09-03 09:20:00,62.0,61.7,29.90,ENE,68,0.0,0.0,99,0.00,,,0.00,WeatherCatV1.21B27,2013-09-03 16:20:00,
2013-09-03 09:25:00,62.8,62.5,29.91,ENE,68,0.0,1.0,99,0.00,,,0.00,WeatherCatV1.21B27,2013-09-03 16:25:00,
2013-09-03 09:30:00,62.8,62.5,29.91,ENE,68,0.0,1.0,99,0.00,,,0.00,WeatherCatV1.21B27,2013-09-03 16:30:00,
2013-09-03 09:35:00,62.8,62.5,29.91,ENE,68,0.0,1.0,99,0.00,,,0.00,WeatherCatV1.21B27,2013-09-03 16:35:00,
2013-09-03 09:40:00,62.8,62.5,29.91,ENE,68,0.0,1.0,99,0.00,,,0.00,WeatherCatV1.21B27,2013-09-03 16:40:00,
2013-09-03 09:45:00,62.8,62.5,29.91,ENE,68,0.0,1.0,99,0.00,,,0.00,WeatherCatV1.21B27,2013-09-03 16:45:00,
2013-09-03 09:50:00,62.8,62.5,29.91,ENE,68,0.0,1.0,99,0.00,,,0.00,WeatherCatV1.21B27,2013-09-03 16:50:00,
2013-09-03 09:55:00,62.8,62.5,29.91,ENE,68,0.0,1.0,99,0.00,,,0.00,WeatherCatV1.21B27,2013-09-03 16:55:00,
2013-09-03 10:00:00,62.8,62.5,29.91,ENE,68,0.0,1.0,99,0.00,,,0.00,WeatherCatV1.21B27,2013-09-03 17:00:00,
2013-09-03 10:05:00,62.8,62.5,29.91,ENE,68,0.0,1.0,99,0.00,,,0.00,WeatherCatV1.21B27,2013-09-03 17:05:00,
2013-09-03 10:10:00,62.8,62.5,29.91,ENE,68,0.0,1.0,99,0.00,,,0.00,WeatherCatV1.21B27,2013-09-03 17:10:00,
2013-09-03 10:15:00,62.8,62.5,29.91,ENE,68,0.0,1.0,99,0.00,,,0.00,WeatherCatV1.21B27,2013-09-03 17:15:00,
2013-09-03 10:20:00,62.8,62.5,29.91,ENE,68,0.0,1.0,99,0.00,,,0.00,WeatherCatV1.21B27,2013-09-03 17:20:00,
2013-09-03 10:25:00,65.2,62.5,29.91,SSE,158,0.0,1.0,91,0.00,,,0.00,WeatherCatV1.21B27,2013-09-03 17:25:00,
2013-09-03 10:30:00,65.2,62.5,29.91,SSE,158,0.0,1.0,91,0.00,,,0.00,WeatherCatV1.21B27,2013-09-03 17:30:00,
2013-09-03 10:35:00,65.2,62.5,29.91,SSE,158,0.0,1.0,91,0.00,,,0.00,WeatherCatV1.21B27,2013-09-03 17:35:00,
2013-09-03 10:40:00,65.2,62.5,29.91,SSE,158,0.0,1.0,91,0.00,,,0.00,WeatherCatV1.21B27,2013-09-03 17:40:00,
2013-09-03 10:45:00,65.2,62.5,29.91,SSE,158,0.0,1.0,91,0.00,,,0.00,WeatherCatV1.21B27,2013-09-03 17:45:00,
2013-09-03 10:50:00,65.2,62.5,29.91,SSE,158,0.0,1.0,91,0.00,,,0.00,WeatherCatV1.21B27,2013-09-03 17:50:00,
2013-09-03 10:55:00,65.2,62.5,29.91,SSE,158,0.0,1.0,91,0.00,,,0.00,WeatherCatV1.21B27,2013-09-03 17:55:00,
2013-09-03 11:00:00,65.2,62.5,29.91,SSE,158,0.0,1.0,91,0.00,,,0.00,WeatherCatV1.21B27,2013-09-03 18:00:00,
2013-09-03 11:05:00,65.2,62.5,29.91,SSE,158,0.0,1.0,91,0.00,,,0.00,WeatherCatV1.21B27,2013-09-03 18:05:00,
2013-09-03 11:10:00,65.2,62.5,29.91,SSE,158,0.0,1.0,91,0.00,,,0.00,WeatherCatV1.21B27,2013-09-03 18:10:00,
2013-09-03 11:15:00,65.2,62.5,29.91,SSE,158,0.0,1.0,91,0.00,,,0.00,WeatherCatV1.21B27,2013-09-03 18:15:00,
2013-09-03 11:20:00,65.2,62.5,29.91,SSE,158,0.0,1.0,91,0.00,,,0.00,WeatherCatV1.21B27,2013-09-03 18:20:00,
2013-09-03 11:25:00,70.1,61.0,29.92,WSW,248,0.0,4.0,73,0.00,,,0.00,WeatherCatV1.21B27,2013-09-03 18:25:00,
2013-09-03 11:30:00,70.1,61.0,29.92,WSW,248,0.0,4.0,73,0.00,,,0.00,WeatherCatV1.21B27,2013-09-03 18:30:00,
2013-09-03 11:35:00,70.1,61.0,29.92,WSW,248,0.0,4.0,73,0.00,,,0.00,WeatherCatV1.21B27,2013-09-03 18:35:00,
2013-09-03 11:40:00,70.1,61.0,29.92,WSW,248,0.0,4.0,73,0.00,,,0.00,WeatherCatV1.21B27,2013-09-03 18:40:00,
2013-09-03 11:45:00,70.1,61.0,29.92,WSW,248,0.0,4.0,73,0.00,,,0.00,WeatherCatV1.21B27,2013-09-03 18:45:00,
2013-09-03 11:50:00,70.1,61.0,29.92,WSW,248,0.0,4.0,73,0.00,,,0.00,WeatherCatV1.21B27,2013-09-03 18:50:00,
2013-09-03 11:55:00,70.1,61.0,29.92,WSW,248,0.0,4.0,73,0.00,,,0.00,WeatherCatV1.21B27,2013-09-03 18:55:00,
2013-09-03 12:00:00,70.1,61.0,29.92,WSW,248,0.0,4.0,73,0.00,,,0.00,WeatherCatV1.21B27,2013-09-03 19:00:00,
2013-09-03 12:05:00,70.1,61.0,29.92,WSW,248,0.0,4.0,73,0.00,,,0.00,WeatherCatV1.21B27,2013-09-03 19:05:00,
2013-09-03 12:10:00,70.1,61.0,29.92,WSW,248,0.0,4.0,73,0.00,,,0.00,WeatherCatV1.21B27,2013-09-03 19:10:00,
2013-09-03 12:15:00,70.1,61.0,29.92,WSW,248,0.0,4.0,73,0.00,,,0.00,WeatherCatV1.21B27,2013-09-03 19:15:00,
2013-09-03 12:20:00,70.1,61.0,29.92,WSW,248,0.0,4.0,73,0.00,,,0.00,WeatherCatV1.21B27,2013-09-03 19:20:00,
2013-09-03 12:25:00,72.5,62.5,29.92,West,270,0.0,1.0,71,0.00,,,0.00,WeatherCatV1.21B27,2013-09-03 19:25:00,
2013-09-03 12:30:00,72.5,62.5,29.92,West,270,0.0,1.0,71,0.00,,,0.00,WeatherCatV1.21B27,2013-09-03 19:30:00,
2013-09-03 12:35:00,72.5,62.5,29.92,West,270,0.0,1.0,71,0.00,,,0.00,WeatherCatV1.21B27,2013-09-03 19:35:00,
2013-09-03 12:40:00,72.5,62.5,29.92,West,270,0.0,1.0,71,0.00,,,0.00,WeatherCatV1.21B27,2013-09-03 19:40:00,
2013-09-03 12:45:00,72.5,62.5,29.92,West,270,0.0,1.0,71,0.00,,,0.00,WeatherCatV1.21B27,2013-09-03 19:45:00,
2013-09-03 12:50:00,72.5,62.5,29.92,West,270,0.0,1.0,71,0.00,,,0.00,WeatherCatV1.21B27,2013-09-03 19:50:00,
2013-09-03 12:55:00,72.5,62.5,29.92,West,270,0.0,1.0,71,0.00,,,0.00,WeatherCatV1.21B27,2013-09-03 19:55:00,
2013-09-03 13:00:00,72.5,62.5,29.92,West,270,0.0,1.0,71,0.00,,,0.00,WeatherCatV1.21B27,2013-09-03 20:00:00,
2013-09-03 13:05:00,72.5,62.5,29.92,West,270,0.0,1.0,71,0.00,,,0.00,WeatherCatV1.21B27,2013-09-03 20:05:00,
2013-09-03 13:10:00,72.5,62.5,29.92,West,270,0.0,1.0,71,0.00,,,0.00,WeatherCatV1.21B27,2013-09-03 20:10:00,
2013-09-03 13:15:00,72.5,62.5,29.92,West,270,0.0,1.0,71,0.00,,,0.00,WeatherCatV1.21B27,2013-09-03 20:15:00,
2013-09-03 13:20:00,72.5,62.5,29.92,West,270,0.0,1.0,71,0.00,,,0.00,WeatherCatV1.21B27,2013-09-03 20:20:00,
2013-09-03 13:25:00,75.3,61.4,29.91,West,270,0.0,0.0,62,0.00,,,0.00,WeatherCatV1.21B27,2013-09-03 20:25:00,
2013-09-03 13:30:00,75.3,61.4,29.91,West,270,0.0,0.0,62,0.00,,,0.00,WeatherCatV1.21B27,2013-09-03 20:30:00,
2013-09-03 13:35:00,75.3,61.4,29.91,West,270,0.0,0.0,62,0.00,,,0.00,WeatherCatV1.21B27,2013-09-03 20:35:00,
2013-09-03 13:40:00,75.3,61.4,29.91,West,270,0.0,0.0,62,0.00,,,0.00,WeatherCatV1.21B27,2013-09-03 20:40:00,
2013-09-03 13:45:00,75.3,61.4,29.91,West,270,0.0,0.0,62,0.00,,,0.00,WeatherCatV1.21B27,2013-09-03 20:45:00,
2013-09-03 13:50:00,75.3,61.4,29.91,West,270,0.0,0.0,62,0.00,,,0.00,WeatherCatV1.21B27,2013-09-03 20:50:00,
2013-09-03 13:55:00,75.3,61.4,29.91,West,270,0.0,0.0,62,0.00,,,0.00,WeatherCatV1.21B27,2013-09-03 20:55:00,
2013-09-03 14:00:00,75.3,61.4,29.91,West,270,0.0,0.0,62,0.00,,,0.00,WeatherCatV1.21B27,2013-09-03 21:00:00,
2013-09-03 14:05:00,75.3,61.4,29.91,West,270,0.0,0.0,62,0.00,,,0.00,WeatherCatV1.21B27,2013-09-03 21:05:00,
2013-09-03 14:10:00,75.3,61.4,29.91,West,270,0.0,0.0,62,0.00,,,0.00,WeatherCatV1.21B27,2013-09-03 21:10:00,
2013-09-03 14:15:00,75.3,61.4,29.91,West,270,0.0,0.0,62,0.00,,,0.00,WeatherCatV1.21B27,2013-09-03 21:15:00,
2013-09-03 14:20:00,75.3,61.4,29.91,West,270,0.0,0.0,62,0.00,,,0.00,WeatherCatV1.21B27,2013-09-03 21:20:00,
2013-09-03 14:25:00,80.3,59.4,29.90,SE,135,0.0,3.0,49,0.00,,,0.00,WeatherCatV1.21B27,2013-09-03 21:25:00,
2013-09-03 14:30:00,80.3,59.4,29.90,SE,135,0.0,3.0,49,0.00,,,0.00,WeatherCatV1.21B27,2013-09-03 21:30:00,
2013-09-03 14:35:00,80.3,59.4,29.90,SE,135,0.0,3.0,49,0.00,,,0.00,WeatherCatV1.21B27,2013-09-03 21:35:00,
2013-09-03 14:40:00,80.3,59.4,29.90,SE,135,0.0,3.0,49,0.00,,,0.00,WeatherCatV1.21B27,2013-09-03 21:40:00,
2013-09-03 14:45:00,80.3,59.4,29.90,SE,135,0.0,3.0,49,0.00,,,0.00,WeatherCatV1.21B27,2013-09-03 21:45:00,
2013-09-03 14:50:00,80.3,59.4,29.90,SE,135,0.0,3.0,49,0.00,,,0.00,WeatherCatV1.21B27,2013-09-03 21:50:00,
2013-09-03 14:55:00,80.3,59.4,29.90,SE,135,0.0,3.0,49,0.00,,,0.00,WeatherCatV1.21B27,2013-09-03 21:55:00,
2013-09-03 15:00:00,80.3,59.4,29.90,SE,135,0.0,3.0,49,0.00,,,0.00,WeatherCatV1.21B27,2013-09-03 22:00:00,
2013-09-03 15:05:00,80.3,59.4,29.90,SE,135,0.0,3.0,49,0.00,,,0.00,WeatherCatV1.21B27,2013-09-03 22:05:00,
2013-09-03 15:10:00,80.3,59.4,29.90,SE,135,0.0,3.0,49,0.00,,,0.00,WeatherCatV1.21B27,2013-09-03 22:10:00,
2013-09-03 15:15:00,80.3,59.4,29.90,SE,135,0.0,3.0,49,0.00,,,0.00,WeatherCatV1.21B27,2013-09-03 22:15:00,
2013-09-03 15:20:00,80.3,59.4,29.90,SE,135,0.0,3.0,49,0.00,,,0.00,WeatherCatV1.21B27,2013-09-03 22:20:00,
2013-09-03 15:25:00,79.0,57.6,29.89,West,270,0.0,3.0,48,0.00,,,0.00,WeatherCatV1.21B27,2013-09-03 22:25:00,
2013-09-03 15:30:00,79.0,57.6,29.89,West,270,0.0,3.0,48,0.00,,,0.00,WeatherCatV1.21B27,2013-09-03 22:30:00,
2013-09-03 15:35:00,79.0,57.6,29.89,West,270,0.0,3.0,48,0.00,,,0.00,WeatherCatV1.21B27,2013-09-03 22:35:00,
2013-09-03 15:40:00,79.0,57.6,29.89,West,270,0.0,3.0,48,0.00,,,0.00,WeatherCatV1.21B27,2013-09-03 22:40:00,
2013-09-03 15:45:00,79.0,57.6,29.89,West,270,0.0,3.0,48,0.00,,,0.00,WeatherCatV1.21B27,2013-09-03 22:45:00,
2013-09-03 15:50:00,79.0,57.6,29.89,West,270,0.0,3.0,48,0.00,,,0.00,WeatherCatV1.21B27,2013-09-03 22:50:00,
2013-09-03 15:55:00,79.0,57.6,29.89,West,270,0.0,3.0,48,0.00,,,0.00,WeatherCatV1.21B27,2013-09-03 22:55:00,
2013-09-03 16:00:00,79.0,57.6,29.89,West,270,0.0,3.0,48,0.00,,,0.00,WeatherCatV1.21B27,2013-09-03 23:00:00,
2013-09-03 16:05:00,79.0,57.6,29.89,West,270,0.0,3.0,48,0.00,,,0.00,WeatherCatV1.21B27,2013-09-03 23:05:00,
2013-09-03 16:10:00,79.0,57.6,29.89,West,270,0.0,3.0,48,0.00,,,0.00,WeatherCatV1.21B27,2013-09-03 23:10:00,
2013-09-03 16:15:00,79.0,57.6,29.89,West,270,0.0,3.0,48,0.00,,,0.00,WeatherCatV1.21B27,2013-09-03 23:15:00,
2013-09-03 16:20:00,79.0,57.6,29.89,West,270,0.0,3.0,48,0.00,,,0.00,WeatherCatV1.21B27,2013-09-03 23:20:00,
2013-09-03 16:25:00,79.0,57.0,29.87,West,270,0.0,3.0,47,0.00,,,0.00,WeatherCatV1.21B27,2013-09-03 23:25:00,
2013-09-03 16:30:00,79.0,57.0,29.87,West,270,0.0,3.0,47,0.00,,,0.00,WeatherCatV1.21B27,2013-09-03 23:30:00,
2013-09-03 16:35:00,79.0,57.0,29.87,West,270,0.0,3.0,47,0.00,,,0.00,WeatherCatV1.21B27,2013-09-03 23:35:00,
2013-09-03 16:40:00,79.0,57.0,29.87,West,270,0.0,3.0,47,0.00,,,0.00,WeatherCatV1.21B27,2013-09-03 23:40:00,
2013-09-03 16:45:00,79.0,57.0,29.87,West,270,0.0,3.0,47,0.00,,,0.00,WeatherCatV1.21B27,2013-09-03 23:45:00,
2013-09-03 16:50:00,79.0,57.0,29.87,West,270,0.0,3.0,47,0.00,,,0.00,WeatherCatV1.21B27,2013-09-03 23:50:00,
2013-09-03 16:55:00,79.0,57.0,29.87,West,270,0.0,3.0,47,0.00,,,0.00,WeatherCatV1.21B27,2013-09-03 23:55:00,
2013-09-03 17:00:00,79.0,57.0,29.87,West,270,0.0,3.0,47,0.00,,,0.00,WeatherCatV1.21B27,2013-09-04 00:00:00,
2013-09-03 17:05:00,79.0,57.0,29.87,West,270,0.0,3.0,47,0.00,,,0.00,WeatherCatV1.21B27,2013-09-04 00:05:00,
2013-09-03 17:10:00,79.0,57.0,29.87,West,270,0.0,3.0,47,0.00,,,0.00,WeatherCatV1.21B27,2013-09-04 00:10:00,
2013-09-03 17:15:00,79.0,57.0,29.87,West,270,0.0,3.0,47,0.00,,,0.00,WeatherCatV1.21B27,2013-09-04 00:15:00,
2013-09-03 17:20:00,79.0,57.0,29.87,West,270,0.0,3.0,47,0.00,,,0.00,WeatherCatV1.21B27,2013-09-04 00:20:00,
2013-09-03 17:25:00,78.4,58.2,29.85,WNW,285,0.0,0.0,50,0.00,,,0.00,WeatherCatV1.21B27,2013-09-04 00:25:00,
2013-09-03 17:30:00,78.4,58.2,29.85,WNW,285,0.0,0.0,50,0.00,,,0.00,WeatherCatV1.21B27,2013-09-04 00:30:00,
2013-09-03 17:35:00,78.4,58.2,29.85,WNW,285,0.0,0.0,50,0.00,,,0.00,WeatherCatV1.21B27,2013-09-04 00:35:00,
2013-09-03 17:40:00,78.4,58.2,29.85,WNW,285,0.0,0.0,50,0.00,,,0.00,WeatherCatV1.21B27,2013-09-04 00:40:00,
2013-09-03 17:45:00,78.4,58.2,29.85,WNW,285,0.0,0.0,50,0.00,,,0.00,WeatherCatV1.21B27,2013-09-04 00:45:00,
2013-09-03 17:50:00,78.4,58.2,29.85,WNW,285,0.0,0.0,50,0.00,,,0.00,WeatherCatV1.21B27,2013-09-04 00:50:00,
2013-09-03 17:55:00,78.4,58.2,29.85,WNW,285,0.0,0.0,50,0.00,,,0.00,WeatherCatV1.21B27,2013-09-04 00:55:00,
2013-09-03 18:00:00,78.4,58.2,29.85,WNW,285,0.0,0.0,50,0.00,,,0.00,WeatherCatV1.21B27,2013-09-04 01:00:00,
2013-09-03 18:05:00,78.4,58.2,29.85,WNW,285,0.0,0.0,50,0.00,,,0.00,WeatherCatV1.21B27,2013-09-04 01:05:00,
2013-09-03 18:10:00,78.4,58.2,29.85,WNW,285,0.0,0.0,50,0.00,,,0.00,WeatherCatV1.21B27,2013-09-04 01:10:00,
2013-09-03 18:15:00,78.4,58.2,29.85,WNW,285,0.0,0.0,50,0.00,,,0.00,WeatherCatV1.21B27,2013-09-04 01:15:00,
2013-09-03 18:20:00,77.0,57.5,29.85,SE,133,0.0,0.0,51,0.00,,,0.00,WeatherCatV1.21B27,2013-09-04 01:20:00,
2013-09-03 18:32:00,76.8,57.3,29.85,SSW,204,0.0,0.0,51,0.00,,,0.00,WeatherCatV1.21B27,2013-09-04 01:32:00,
2013-09-03 18:37:00,76.5,57.5,29.85,SE,133,0.0,0.0,52,0.00,,,0.01,WeatherCatV1.21B27,2013-09-04 01:37:00,
2013-09-03 18:42:00,76.3,57.4,29.84,SE,132,0.0,0.0,52,0.00,,,0.01,WeatherCatV1.21B27,2013-09-04 01:42:00,
2013-09-03 18:47:00,76.1,58.2,29.84,SE,132,0.0,0.0,54,0.00,,,0.01,WeatherCatV1.21B27,2013-09-04 01:47:00,
2013-09-03 18:52:00,76.0,58.7,29.84,SE,132,0.0,0.0,55,0.00,,,0.01,WeatherCatV1.21B27,2013-09-04 01:52:00,
2013-09-03 18:57:00,75.7,58.4,29.84,SE,132,0.0,0.0,55,0.00,,,0.01,WeatherCatV1.21B27,2013-09-04 01:57:00,
2013-09-03 19:02:00,75.4,58.1,29.84,SE,133,0.0,0.0,55,0.00,,,0.01,WeatherCatV1.21B27,2013-09-04 02:02:00,
2013-09-03 19:07:00,75.1,57.8,29.84,SE,132,0.0,0.0,55,0.00,,,0.01,WeatherCatV1.21B27,2013-09-04 02:07:00,
2013-09-03 19:12:00,74.6,58.8,29.84,SE,132,0.0,0.0,58,0.00,,,0.01,WeatherCatV1.21B27,2013-09-04 02:12:00,
2013-09-03 19:17:00,74.0,59.2,29.84,SE,132,0.0,0.0,60,0.00,,,0.01,WeatherCatV1.21B27,2013-09-04 02:17:00,
2013-09-03 19:22:00,73.5,58.3,29.84,SE,132,0.0,0.0,59,0.00,,,0.01,WeatherCatV1.21B27,2013-09-04 02:22:00,
2013-09-03 19:27:00,72.9,57.7,29.84,SE,132,0.0,0.0,59,0.00,,,0.01,WeatherCatV1.21B27,2013-09-04 02:27:00,
2013-09-03 19:32:00,72.5,58.3,29.84,SE,132,0.0,0.0,61,0.00,,,0.01,WeatherCatV1.21B27,2013-09-04 02:32:00,
2013-09-03 19:37:00,72.1,57.4,29.84,SE,132,0.0,0.0,60,0.00,,,0.01,WeatherCatV1.21B27,2013-09-04 02:37:00,
2013-09-03 19:42:00,71.7,58.0,29.84,SE,132,0.0,0.0,62,0.00,,,0.01,WeatherCatV1.21B27,2013-09-04 02:42:00,
2013-09-03 19:47:00,71.4,57.7,29.84,SE,132,0.0,0.0,62,0.00,,,0.01,WeatherCatV1.21B27,2013-09-04 02:47:00,
2013-09-03 19:52:00,71.1,57.4,29.84,SE,132,0.0,0.0,62,0.00,,,0.01,WeatherCatV1.21B27,2013-09-04 02:52:00,
2013-09-03 19:57:00,70.9,56.8,29.85,SE,132,0.0,0.0,61,0.00,,,0.01,WeatherCatV1.21B27,2013-09-04 02:57:00,
2013-09-03 20:02:00,70.6,57.8,29.85,SE,132,0.0,0.0,64,0.00,,,0.01,WeatherCatV1.21B27,2013-09-04 03:02:00,
2013-09-03 20:07:00,70.3,58.0,29.85,SE,133,0.0,0.0,65,0.00,,,0.01,WeatherCatV1.21B27,2013-09-04 03:07:00,
2013-09-03 20:12:00,69.9,56.7,29.85,SE,129,0.0,0.0,63,0.00,,,0.01,WeatherCatV1.21B27,2013-09-04 03:12:00,
2013-09-03 20:17:00,69.6,58.2,29.85,SE,124,0.0,0.0,67,0.00,,,0.01,WeatherCatV1.21B27,2013-09-04 03:17:00,
2013-09-03 20:22:00,69.2,58.2,29.85,SE,124,0.0,0.0,68,0.00,,,0.01,WeatherCatV1.21B27,2013-09-04 03:22:00,
2013-09-03 20:27:00,68.9,59.1,29.85,SE,124,0.0,0.0,71,0.00,,,0.01,WeatherCatV1.21B27,2013-09-04 03:27:00,
2013-09-03 20:32:00,68.6,56.8,29.85,ESE,122,0.0,0.0,66,0.00,,,0.01,WeatherCatV1.21B27,2013-09-04 03:32:00,
2013-09-03 20:37:00,68.5,55.8,29.86,ESE,122,0.0,0.0,64,0.00,,,0.01,WeatherCatV1.21B27,2013-09-04 03:37:00,
2013-09-03 20:42:00,68.5,56.7,29.86,ESE,122,0.0,0.0,66,0.00,,,0.01,WeatherCatV1.21B27,2013-09-04 03:42:00,
2013-09-03 20:47:00,68.2,59.2,29.86,ESE,117,0.0,0.0,73,0.00,,,0.01,WeatherCatV1.21B27,2013-09-04 03:47:00,
2013-09-03 20:52:00,67.8,58.0,29.86,ESE,117,0.0,0.0,71,0.00,,,0.01,WeatherCatV1.21B27,2013-09-04 03:52:00,
2013-09-03 20:57:00,67.7,57.2,29.86,ESE,117,0.0,0.0,69,0.00,,,0.01,WeatherCatV1.21B27,2013-09-04 03:57:00,
2013-09-03 21:01:00,67.6,56.2,29.86,ESE,115,0.0,0.0,67,0.00,,,0.01,WeatherCatV1.21B27,2013-09-04 04:01:00,
2013-09-03 21:02:00,67.6,56.2,29.86,ESE,115,0.0,0.0,67,0.00,,,0.01,WeatherCatV1.21B27,2013-09-04 04:02:00,
2013-09-03 21:07:00,67.4,56.0,29.86,ESE,116,0.0,0.0,67,0.00,,,0.01,WeatherCatV1.21B27,2013-09-04 04:07:00,
2013-09-03 21:12:00,67.3,57.6,29.86,ESE,115,0.0,0.0,71,0.00,,,0.01,WeatherCatV1.21B27,2013-09-04 04:12:00,
2013-09-03 21:17:00,67.0,56.5,29.86,ESE,115,0.0,0.0,69,0.00,,,0.01,WeatherCatV1.21B27,2013-09-04 04:17:00,
2013-09-03 21:22:00,66.8,57.1,29.86,ESE,116,0.0,0.0,71,0.00,,,0.01,WeatherCatV1.21B27,2013-09-04 04:22:00,
2013-09-03 21:27:00,66.6,56.1,29.86,ESE,116,0.0,0.0,69,0.00,,,0.01,WeatherCatV1.21B27,2013-09-04 04:27:00,
2013-09-03 21:32:00,66.5,54.4,29.87,ESE,115,0.0,0.0,65,0.00,,,0.01,WeatherCatV1.21B27,2013-09-04 04:32:00,
2013-09-03 21:37:00,66.4,57.1,29.87,ESE,115,0.0,0.0,72,0.00,,,0.01,WeatherCatV1.21B27,2013-09-04 04:37:00,
2013-09-03 21:42:00,66.3,58.5,29.87,ESE,115,0.0,0.0,76,0.00,,,0.01,WeatherCatV1.21B27,2013-09-04 04:42:00,
2013-09-03 21:47:00,66.0,56.3,29.87,ESE,115,0.0,0.0,71,0.00,,,0.01,WeatherCatV1.21B27,2013-09-04 04:47:00,
2013-09-03 21:52:00,65.5,53.8,29.87,ESE,115,0.0,0.0,66,0.00,,,0.01,WeatherCatV1.21B27,2013-09-04 04:52:00,
2013-09-03 21:57:00,65.4,58.0,29.88,ESE,116,0.0,0.0,77,0.00,,,0.01,WeatherCatV1.21B27,2013-09-04 04:57:00,
2013-09-03 22:02:00,65.1,55.5,29.88,ESE,115,0.0,0.0,71,0.00,,,0.01,WeatherCatV1.21B27,2013-09-04 05:02:00,
2013-09-03 22:07:00,64.7,58.0,29.87,ESE,116,0.0,0.0,79,0.00,,,0.01,WeatherCatV1.21B27,2013-09-04 05:07:00,
2013-09-03 22:12:00,64.2,55.0,29.87,ESE,115,0.0,0.0,72,0.00,,,0.01,WeatherCatV1.21B27,2013-09-04 05:12:00,
2013-09-03 22:17:00,64.1,54.9,29.87,ESE,115,0.0,0.0,72,0.00,,,0.01,WeatherCatV1.21B27,2013-09-04 05:17:00,
2013-09-03 22:22:00,64.2,55.0,29.87,ESE,111,0.0,0.0,72,0.00,,,0.01,WeatherCatV1.21B27,2013-09-04 05:22:00,
2013-09-03 22:27:00,64.3,55.1,29.87,ESE,110,0.0,0.0,72,0.00,,,0.01,WeatherCatV1.21B27,2013-09-04 05:27:00,
2013-09-03 22:32:00,64.2,55.7,29.88,ESE,110,0.0,0.0,74,0.00,,,0.01,WeatherCatV1.21B27,2013-09-04 05:32:00,
2013-09-03 22:35:00,64.2,55.7,29.88,ESE,110,0.0,0.0,74,0.00,,,0.00,WeatherCatV1.21B27,2013-09-04 05:35:00,
2013-09-03 22:40:00,64.2,55.7,29.88,ESE,110,0.0,0.0,74,0.00,,,0.00,WeatherCatV1.21B27,2013-09-04 05:40:00,
2013-09-03 22:45:00,64.2,55.7,29.88,ESE,110,0.0,0.0,74,0.00,,,0.00,WeatherCatV1.21B27,2013-09-04 05:45:00,
2013-09-03 22:50:00,64.2,55.7,29.88,ESE,110,0.0,0.0,74,0.00,,,0.00,WeatherCatV1.21B27,2013-09-04 05:50:00,
2013-09-03 22:55:00,64.2,55.7,29.88,ESE,110,0.0,0.0,74,0.00,,,0.00,WeatherCatV1.21B27,2013-09-04 05:55:00,
2013-09-03 23:00:00,64.2,55.7,29.88,ESE,110,0.0,0.0,74,0.00,,,0.00,WeatherCatV1.21B27,2013-09-04 06:00:00,
2013-09-03 23:05:00,64.2,55.7,29.88,ESE,110,0.0,0.0,74,0.00,,,0.00,WeatherCatV1.21B27,2013-09-04 06:05:00,
2013-09-03 23:10:00,64.2,55.7,29.88,ESE,110,0.0,0.0,74,0.00,,,0.00,WeatherCatV1.21B27,2013-09-04 06:10:00,
2013-09-03 23:15:00,64.2,55.7,29.88,ESE,110,0.0,0.0,74,0.00,,,0.00,WeatherCatV1.21B27,2013-09-04 06:15:00,
2013-09-03 23:20:00,64.2,55.7,29.88,ESE,110,0.0,0.0,74,0.00,,,0.00,WeatherCatV1.21B27,2013-09-04 06:20:00,
2013-09-03 23:25:00,64.2,55.7,29.88,ESE,110,0.0,0.0,74,0.00,,,0.00,WeatherCatV1.21B27,2013-09-04 06:25:00,
2013-09-03 23:30:00,64.1,56.4,29.88,WSW,248,0.0,0.0,76,0.00,,,0.00,WeatherCatV1.21B27,2013-09-04 06:30:00,
2013-09-03 23:35:00,64.1,56.4,29.88,WSW,248,0.0,0.0,76,0.00,,,0.00,WeatherCatV1.21B27,2013-09-04 06:35:00,
2013-09-03 23:40:00,64.1,56.4,29.88,WSW,248,0.0,0.0,76,0.00,,,0.00,WeatherCatV1.21B27,2013-09-04 06:40:00,
2013-09-03 23:45:00,64.1,56.4,29.88,WSW,248,0.0,0.0,76,0.00,,,0.00,WeatherCatV1.21B27,2013-09-04 06:45:00,
2013-09-03 23:50:00,64.1,56.4,29.88,WSW,248,0.0,0.0,76,0.00,,,0.00,WeatherCatV1.21B27,2013-09-04 06:50:00,
2013-09-03 23:55:00,64.1,56.4,29.88,WSW,248,0.0,0.0,76,0.00,,,0.00,WeatherCatV1.21B27,2013-09-04 06:55:00,